sensor_id;sensor_type;location;lat;lon;timestamp;temperature;humidity
10536;DHT22;5316;49.538;8.352;2023-04-04T00:00:50;3.40;1.00
10536;DHT22;5316;49.538;8.352;2023-04-04T00:03:17;3.40;1.00
10536;DHT22;5316;49.538;8.352;2023-04-04T00:05:44;3.30;1.00
10536;DHT22;5316;49.538;8.352;2023-04-04T00:08:11;3.30;1.00
10536;DHT22;5316;49.538;8.352;2023-04-04T00:10:39;3.30;1.00
10536;DHT22;5316;49.538;8.352;2023-04-04T00:13:06;3.30;1.00
10536;DHT22;5316;49.538;8.352;2023-04-04T00:15:33;3.30;1.00
10536;DHT22;5316;49.538;8.352;2023-04-04T00:18:01;3.30;1.00
10536;DHT22;5316;49.538;8.352;2023-04-04T00:20:28;3.30;1.00
10536;DHT22;5316;49.538;8.352;2023-04-04T00:22:55;3.20;1.00
10536;DHT22;5316;49.538;8.352;2023-04-04T00:25:22;3.20;1.00
10536;DHT22;5316;49.538;8.352;2023-04-04T00:27:50;3.20;1.00
10536;DHT22;5316;49.538;8.352;2023-04-04T00:30:17;3.10;1.00
10536;DHT22;5316;49.538;8.352;2023-04-04T00:32:44;3.10;1.00
10536;DHT22;5316;49.538;8.352;2023-04-04T00:35:12;3.10;1.00
10536;DHT22;5316;49.538;8.352;2023-04-04T00:37:39;3.10;1.00
10536;DHT22;5316;49.538;8.352;2023-04-04T00:40:07;3.10;1.00
10536;DHT22;5316;49.538;8.352;2023-04-04T00:42:34;3.00;1.00
10536;DHT22;5316;49.538;8.352;2023-04-04T00:45:04;3.00;1.00
10536;DHT22;5316;49.538;8.352;2023-04-04T00:47:33;2.90;1.00
10536;DHT22;5316;49.538;8.352;2023-04-04T00:50:01;3.00;1.00
10536;DHT22;5316;49.538;8.352;2023-04-04T00:52:27;2.80;1.00
10536;DHT22;5316;49.538;8.352;2023-04-04T00:54:55;2.80;1.00
10536;DHT22;5316;49.538;8.352;2023-04-04T00:57:23;2.80;1.00
10536;DHT22;5316;49.538;8.352;2023-04-04T00:59:50;2.70;1.00
10536;DHT22;5316;49.538;8.352;2023-04-04T01:02:18;2.70;1.00
10536;DHT22;5316;49.538;8.352;2023-04-04T01:04:45;2.60;1.00
10536;DHT22;5316;49.538;8.352;2023-04-04T01:07:13;2.60;1.00
10536;DHT22;5316;49.538;8.352;2023-04-04T01:09:40;2.60;1.00
10536;DHT22;5316;49.538;8.352;2023-04-04T01:12:07;2.60;1.00
10536;DHT22;5316;49.538;8.352;2023-04-04T01:14:34;2.60;1.00
10536;DHT22;5316;49.538;8.352;2023-04-04T01:17:01;2.60;1.00
10536;DHT22;5316;49.538;8.352;2023-04-04T01:19:33;2.60;1.00
10536;DHT22;5316;49.538;8.352;2023-04-04T01:22:02;2.60;1.00
10536;DHT22;5316;49.538;8.352;2023-04-04T01:24:32;2.50;1.00
10536;DHT22;5316;49.538;8.352;2023-04-04T01:27:01;2.50;1.00
10536;DHT22;5316;49.538;8.352;2023-04-04T01:29:28;2.50;1.00
10536;DHT22;5316;49.538;8.352;2023-04-04T01:31:58;2.50;1.00
10536;DHT22;5316;49.538;8.352;2023-04-04T01:34:31;2.40;1.00
10536;DHT22;5316;49.538;8.352;2023-04-04T01:37:08;2.40;1.00
10536;DHT22;5316;49.538;8.352;2023-04-04T01:39:42;2.40;1.00
10536;DHT22;5316;49.538;8.352;2023-04-04T01:42:10;2.40;1.00
10536;DHT22;5316;49.538;8.352;2023-04-04T01:44:38;2.40;1.00
10536;DHT22;5316;49.538;8.352;2023-04-04T01:47:06;2.40;1.00
10536;DHT22;5316;49.538;8.352;2023-04-04T01:49:33;2.40;1.00
10536;DHT22;5316;49.538;8.352;2023-04-04T01:52:00;2.40;1.00
10536;DHT22;5316;49.538;8.352;2023-04-04T01:54:27;2.30;1.00
10536;DHT22;5316;49.538;8.352;2023-04-04T01:56:55;2.30;1.00
10536;DHT22;5316;49.538;8.352;2023-04-04T01:59:23;2.30;1.00
10536;DHT22;5316;49.538;8.352;2023-04-04T02:01:50;2.20;1.00
10536;DHT22;5316;49.538;8.352;2023-04-04T02:04:17;2.20;1.00
10536;DHT22;5316;49.538;8.352;2023-04-04T02:06:44;2.30;1.00
10536;DHT22;5316;49.538;8.352;2023-04-04T02:09:11;2.20;1.00
10536;DHT22;5316;49.538;8.352;2023-04-04T02:11:38;2.20;1.00
10536;DHT22;5316;49.538;8.352;2023-04-04T02:14:05;2.20;1.00
10536;DHT22;5316;49.538;8.352;2023-04-04T02:16:34;2.20;1.00
10536;DHT22;5316;49.538;8.352;2023-04-04T02:19:01;2.10;1.00
10536;DHT22;5316;49.538;8.352;2023-04-04T02:21:28;2.00;1.00
10536;DHT22;5316;49.538;8.352;2023-04-04T02:23:55;2.00;1.00
10536;DHT22;5316;49.538;8.352;2023-04-04T02:26:22;2.00;1.00
10536;DHT22;5316;49.538;8.352;2023-04-04T02:28:49;2.00;1.00
10536;DHT22;5316;49.538;8.352;2023-04-04T02:31:16;1.90;1.00
10536;DHT22;5316;49.538;8.352;2023-04-04T02:33:45;1.90;1.00
10536;DHT22;5316;49.538;8.352;2023-04-04T02:36:12;1.90;1.00
10536;DHT22;5316;49.538;8.352;2023-04-04T02:38:40;1.90;1.00
10536;DHT22;5316;49.538;8.352;2023-04-04T02:41:07;1.90;1.00
10536;DHT22;5316;49.538;8.352;2023-04-04T02:43:36;1.80;1.00
10536;DHT22;5316;49.538;8.352;2023-04-04T02:46:03;1.80;1.00
10536;DHT22;5316;49.538;8.352;2023-04-04T02:48:30;1.80;1.00
10536;DHT22;5316;49.538;8.352;2023-04-04T02:50:58;1.70;1.00
10536;DHT22;5316;49.538;8.352;2023-04-04T02:53:26;1.70;1.00
10536;DHT22;5316;49.538;8.352;2023-04-04T02:55:53;1.70;1.00
10536;DHT22;5316;49.538;8.352;2023-04-04T02:58:21;1.70;1.00
10536;DHT22;5316;49.538;8.352;2023-04-04T03:00:53;1.70;1.00
10536;DHT22;5316;49.538;8.352;2023-04-04T03:03:20;1.70;1.00
10536;DHT22;5316;49.538;8.352;2023-04-04T03:05:48;1.60;1.00
10536;DHT22;5316;49.538;8.352;2023-04-04T03:08:17;1.60;1.00
10536;DHT22;5316;49.538;8.352;2023-04-04T03:10:44;1.60;1.00
10536;DHT22;5316;49.538;8.352;2023-04-04T03:13:11;1.60;1.00
10536;DHT22;5316;49.538;8.352;2023-04-04T03:15:38;1.60;1.00
10536;DHT22;5316;49.538;8.352;2023-04-04T03:18:06;1.60;1.00
10536;DHT22;5316;49.538;8.352;2023-04-04T03:20:33;1.60;1.00
10536;DHT22;5316;49.538;8.352;2023-04-04T03:23:01;1.60;1.00
10536;DHT22;5316;49.538;8.352;2023-04-04T03:25:29;1.50;1.00
10536;DHT22;5316;49.538;8.352;2023-04-04T03:27:57;1.50;1.00
10536;DHT22;5316;49.538;8.352;2023-04-04T03:30:24;1.50;1.00
10536;DHT22;5316;49.538;8.352;2023-04-04T03:32:51;1.50;1.00
10536;DHT22;5316;49.538;8.352;2023-04-04T03:35:19;1.40;1.00
10536;DHT22;5316;49.538;8.352;2023-04-04T03:37:46;1.50;1.00
10536;DHT22;5316;49.538;8.352;2023-04-04T03:40:13;1.50;1.00
10536;DHT22;5316;49.538;8.352;2023-04-04T03:42:42;1.40;1.00
10536;DHT22;5316;49.538;8.352;2023-04-04T03:45:10;1.40;1.00
10536;DHT22;5316;49.538;8.352;2023-04-04T03:47:37;1.40;1.00
10536;DHT22;5316;49.538;8.352;2023-04-04T03:50:05;1.40;1.00
10536;DHT22;5316;49.538;8.352;2023-04-04T03:52:36;1.40;1.00
10536;DHT22;5316;49.538;8.352;2023-04-04T03:55:05;1.40;1.00
10536;DHT22;5316;49.538;8.352;2023-04-04T03:57:32;1.30;1.00
10536;DHT22;5316;49.538;8.352;2023-04-04T04:00:02;1.30;1.00
10536;DHT22;5316;49.538;8.352;2023-04-04T04:02:29;1.30;1.00
10536;DHT22;5316;49.538;8.352;2023-04-04T04:04:56;1.30;1.00
10536;DHT22;5316;49.538;8.352;2023-04-04T04:07:23;1.30;1.00
10536;DHT22;5316;49.538;8.352;2023-04-04T04:09:50;1.30;1.00
10536;DHT22;5316;49.538;8.352;2023-04-04T04:12:17;1.30;1.00
10536;DHT22;5316;49.538;8.352;2023-04-04T04:14:44;1.30;1.00
10536;DHT22;5316;49.538;8.352;2023-04-04T04:17:12;1.30;1.00
10536;DHT22;5316;49.538;8.352;2023-04-04T04:19:44;1.30;1.00
10536;DHT22;5316;49.538;8.352;2023-04-04T04:22:11;1.20;1.00
10536;DHT22;5316;49.538;8.352;2023-04-04T04:24:38;1.20;1.00
10536;DHT22;5316;49.538;8.352;2023-04-04T04:27:05;1.30;1.00
10536;DHT22;5316;49.538;8.352;2023-04-04T04:29:32;1.30;1.00
10536;DHT22;5316;49.538;8.352;2023-04-04T04:32:01;1.20;1.00
10536;DHT22;5316;49.538;8.352;2023-04-04T04:34:29;1.20;1.00
10536;DHT22;5316;49.538;8.352;2023-04-04T04:36:56;1.20;1.00
10536;DHT22;5316;49.538;8.352;2023-04-04T04:39:23;1.10;1.00
10536;DHT22;5316;49.538;8.352;2023-04-04T04:41:50;1.10;1.00
10536;DHT22;5316;49.538;8.352;2023-04-04T04:44:17;1.10;1.00
10536;DHT22;5316;49.538;8.352;2023-04-04T04:46:45;1.10;1.00
10536;DHT22;5316;49.538;8.352;2023-04-04T04:49:11;1.10;1.00
10536;DHT22;5316;49.538;8.352;2023-04-04T04:51:40;1.10;1.00
10536;DHT22;5316;49.538;8.352;2023-04-04T04:54:07;1.10;1.00
10536;DHT22;5316;49.538;8.352;2023-04-04T04:56:35;1.00;1.00
10536;DHT22;5316;49.538;8.352;2023-04-04T04:59:02;1.00;1.00
10536;DHT22;5316;49.538;8.352;2023-04-04T05:01:31;1.00;1.00
10536;DHT22;5316;49.538;8.352;2023-04-04T05:03:58;0.90;1.00
10536;DHT22;5316;49.538;8.352;2023-04-04T05:06:26;0.90;1.00
10536;DHT22;5316;49.538;8.352;2023-04-04T05:08:54;0.90;1.00
10536;DHT22;5316;49.538;8.352;2023-04-04T05:11:21;0.90;1.00
10536;DHT22;5316;49.538;8.352;2023-04-04T05:13:48;0.90;1.00
10536;DHT22;5316;49.538;8.352;2023-04-04T05:16:15;0.90;1.00
10536;DHT22;5316;49.538;8.352;2023-04-04T05:18:45;0.90;1.00
10536;DHT22;5316;49.538;8.352;2023-04-04T05:21:12;0.90;1.00
10536;DHT22;5316;49.538;8.352;2023-04-04T05:23:39;0.90;1.00
10536;DHT22;5316;49.538;8.352;2023-04-04T05:26:07;0.90;1.00
10536;DHT22;5316;49.538;8.352;2023-04-04T05:28:35;0.90;1.00
10536;DHT22;5316;49.538;8.352;2023-04-04T05:31:04;1.00;1.00
10536;DHT22;5316;49.538;8.352;2023-04-04T05:33:31;0.90;1.00
10536;DHT22;5316;49.538;8.352;2023-04-04T05:35:58;1.00;1.00
10536;DHT22;5316;49.538;8.352;2023-04-04T05:38:26;1.00;1.00
10536;DHT22;5316;49.538;8.352;2023-04-04T05:40:54;1.00;1.00
10536;DHT22;5316;49.538;8.352;2023-04-04T05:43:22;1.10;1.00
10536;DHT22;5316;49.538;8.352;2023-04-04T05:45:49;1.20;1.00
10536;DHT22;5316;49.538;8.352;2023-04-04T05:48:16;1.20;1.00
10536;DHT22;5316;49.538;8.352;2023-04-04T05:50:44;1.20;1.00
10536;DHT22;5316;49.538;8.352;2023-04-04T05:53:12;1.20;1.00
10536;DHT22;5316;49.538;8.352;2023-04-04T05:55:39;1.30;1.00
10536;DHT22;5316;49.538;8.352;2023-04-04T05:58:07;1.30;1.00
10536;DHT22;5316;49.538;8.352;2023-04-04T06:00:35;1.30;1.00
10536;DHT22;5316;49.538;8.352;2023-04-04T06:03:02;1.40;1.00
10536;DHT22;5316;49.538;8.352;2023-04-04T06:05:29;1.50;1.00
10536;DHT22;5316;49.538;8.352;2023-04-04T06:07:57;1.50;1.00
10536;DHT22;5316;49.538;8.352;2023-04-04T06:10:25;1.60;1.00
10536;DHT22;5316;49.538;8.352;2023-04-04T06:12:51;1.60;1.00
10536;DHT22;5316;49.538;8.352;2023-04-04T06:15:19;1.70;1.00
10536;DHT22;5316;49.538;8.352;2023-04-04T06:17:48;1.80;1.00
10536;DHT22;5316;49.538;8.352;2023-04-04T06:59:43;2.90;1.00
10536;DHT22;5316;49.538;8.352;2023-04-04T07:06:03;3.10;1.00
10536;DHT22;5316;49.538;8.352;2023-04-04T10:07:29;7.10;1.00
10536;DHT22;5316;49.538;8.352;2023-04-04T10:10:00;7.20;1.00
10536;DHT22;5316;49.538;8.352;2023-04-04T10:12:29;7.20;1.00
10536;DHT22;5316;49.538;8.352;2023-04-04T10:14:58;7.20;1.00
10536;DHT22;5316;49.538;8.352;2023-04-04T10:17:29;7.20;1.00
10536;DHT22;5316;49.538;8.352;2023-04-04T10:19:57;7.20;1.00
10536;DHT22;5316;49.538;8.352;2023-04-04T10:22:25;7.20;1.00
10536;DHT22;5316;49.538;8.352;2023-04-04T10:24:54;7.20;1.00
10536;DHT22;5316;49.538;8.352;2023-04-04T10:27:23;7.20;1.00
10536;DHT22;5316;49.538;8.352;2023-04-04T10:29:51;7.20;1.00
10536;DHT22;5316;49.538;8.352;2023-04-04T10:32:22;7.20;1.00
10536;DHT22;5316;49.538;8.352;2023-04-04T10:34:56;7.30;1.00
10536;DHT22;5316;49.538;8.352;2023-04-04T10:37:27;7.30;1.00
10536;DHT22;5316;49.538;8.352;2023-04-04T10:40:04;7.30;1.00
10536;DHT22;5316;49.538;8.352;2023-04-04T10:42:38;7.40;1.00
10536;DHT22;5316;49.538;8.352;2023-04-04T10:45:07;7.40;1.00
10536;DHT22;5316;49.538;8.352;2023-04-04T10:47:35;7.40;1.00
10536;DHT22;5316;49.538;8.352;2023-04-04T10:50:03;7.40;1.00
10536;DHT22;5316;49.538;8.352;2023-04-04T10:52:35;7.50;1.00
10536;DHT22;5316;49.538;8.352;2023-04-04T10:55:06;7.60;1.00
10536;DHT22;5316;49.538;8.352;2023-04-04T10:57:39;7.60;1.00
10536;DHT22;5316;49.538;8.352;2023-04-04T11:00:08;7.70;1.00
10536;DHT22;5316;49.538;8.352;2023-04-04T11:02:45;7.70;1.00
10536;DHT22;5316;49.538;8.352;2023-04-04T11:05:18;7.70;1.00
10536;DHT22;5316;49.538;8.352;2023-04-04T11:07:46;7.70;1.00
10536;DHT22;5316;49.538;8.352;2023-04-04T11:10:21;7.70;1.00
10536;DHT22;5316;49.538;8.352;2023-04-04T11:12:51;7.70;1.00
10536;DHT22;5316;49.538;8.352;2023-04-04T11:15:21;7.90;1.00
10536;DHT22;5316;49.538;8.352;2023-04-04T11:17:54;7.80;1.00
10536;DHT22;5316;49.538;8.352;2023-04-04T11:20:22;7.60;1.00
10536;DHT22;5316;49.538;8.352;2023-04-04T11:22:50;7.60;1.00
10536;DHT22;5316;49.538;8.352;2023-04-04T11:25:34;7.60;1.00
10536;DHT22;5316;49.538;8.352;2023-04-04T11:28:11;7.70;1.00
10536;DHT22;5316;49.538;8.352;2023-04-04T11:30:41;7.80;1.00
10536;DHT22;5316;49.538;8.352;2023-04-04T11:33:13;7.90;1.00
10536;DHT22;5316;49.538;8.352;2023-04-04T11:35:50;8.00;1.00
10536;DHT22;5316;49.538;8.352;2023-04-04T11:38:19;8.00;1.00
10536;DHT22;5316;49.538;8.352;2023-04-04T11:40:53;8.10;1.00
10536;DHT22;5316;49.538;8.352;2023-04-04T11:43:21;8.20;1.00
10536;DHT22;5316;49.538;8.352;2023-04-04T11:45:49;8.30;1.00
10536;DHT22;5316;49.538;8.352;2023-04-04T11:48:18;8.40;1.00
10536;DHT22;5316;49.538;8.352;2023-04-04T11:50:48;8.40;1.00
10536;DHT22;5316;49.538;8.352;2023-04-04T11:53:17;8.40;1.00
10536;DHT22;5316;49.538;8.352;2023-04-04T11:55:48;8.50;1.00
10536;DHT22;5316;49.538;8.352;2023-04-04T11:58:19;8.50;1.00
10536;DHT22;5316;49.538;8.352;2023-04-04T12:00:45;8.50;1.00
10536;DHT22;5316;49.538;8.352;2023-04-04T12:03:15;8.60;1.00
10536;DHT22;5316;49.538;8.352;2023-04-04T12:05:43;8.60;1.00
10536;DHT22;5316;49.538;8.352;2023-04-04T12:08:10;8.60;1.00
10536;DHT22;5316;49.538;8.352;2023-04-04T12:10:38;8.70;1.00
10536;DHT22;5316;49.538;8.352;2023-04-04T12:13:06;8.70;1.00
10536;DHT22;5316;49.538;8.352;2023-04-04T12:15:35;8.70;1.00
10536;DHT22;5316;49.538;8.352;2023-04-04T12:18:05;8.70;1.00
10536;DHT22;5316;49.538;8.352;2023-04-04T12:20:32;8.70;1.00
10536;DHT22;5316;49.538;8.352;2023-04-04T12:23:00;8.80;1.00
10536;DHT22;5316;49.538;8.352;2023-04-04T12:25:28;8.80;1.00
10536;DHT22;5316;49.538;8.352;2023-04-04T12:27:58;8.90;1.00
10536;DHT22;5316;49.538;8.352;2023-04-04T12:30:27;9.00;1.00
10536;DHT22;5316;49.538;8.352;2023-04-04T12:32:55;9.10;1.00
10536;DHT22;5316;49.538;8.352;2023-04-04T12:35:22;9.10;1.00
10536;DHT22;5316;49.538;8.352;2023-04-04T12:38:00;9.20;1.00
10536;DHT22;5316;49.538;8.352;2023-04-04T12:40:37;9.20;1.00
10536;DHT22;5316;49.538;8.352;2023-04-04T12:43:05;9.30;1.00
10536;DHT22;5316;49.538;8.352;2023-04-04T12:45:37;9.40;1.00
10536;DHT22;5316;49.538;8.352;2023-04-04T12:48:10;9.60;1.00
10536;DHT22;5316;49.538;8.352;2023-04-04T12:50:51;9.60;1.00
10536;DHT22;5316;49.538;8.352;2023-04-04T12:53:19;9.70;1.00
10536;DHT22;5316;49.538;8.352;2023-04-04T12:55:47;9.90;1.00
10536;DHT22;5316;49.538;8.352;2023-04-04T12:58:16;10.00;1.00
10536;DHT22;5316;49.538;8.352;2023-04-04T13:00:43;10.20;1.00
10536;DHT22;5316;49.538;8.352;2023-04-04T13:03:13;10.40;1.00
10536;DHT22;5316;49.538;8.352;2023-04-04T13:05:42;10.60;1.00
10536;DHT22;5316;49.538;8.352;2023-04-04T13:08:09;10.70;1.00
10536;DHT22;5316;49.538;8.352;2023-04-04T13:10:56;10.80;1.00
10536;DHT22;5316;49.538;8.352;2023-04-04T13:13:30;11.00;1.00
10536;DHT22;5316;49.538;8.352;2023-04-04T13:16:00;11.10;1.00
10536;DHT22;5316;49.538;8.352;2023-04-04T13:18:34;11.20;1.00
10536;DHT22;5316;49.538;8.352;2023-04-04T13:21:02;11.30;1.00
10536;DHT22;5316;49.538;8.352;2023-04-04T13:23:30;11.50;1.00
10536;DHT22;5316;49.538;8.352;2023-04-04T13:25:58;11.70;1.00
10536;DHT22;5316;49.538;8.352;2023-04-04T13:28:25;12.00;1.00
10536;DHT22;5316;49.538;8.352;2023-04-04T13:30:52;12.30;1.00
10536;DHT22;5316;49.538;8.352;2023-04-04T13:33:18;12.70;1.00
10536;DHT22;5316;49.538;8.352;2023-04-04T13:35:48;12.80;1.00
10536;DHT22;5316;49.538;8.352;2023-04-04T13:38:16;13.00;1.00
10536;DHT22;5316;49.538;8.352;2023-04-04T13:40:43;13.00;1.00
10536;DHT22;5316;49.538;8.352;2023-04-04T13:43:10;13.20;1.00
10536;DHT22;5316;49.538;8.352;2023-04-04T13:45:37;13.30;1.00
10536;DHT22;5316;49.538;8.352;2023-04-04T13:48:04;13.30;1.00
10536;DHT22;5316;49.538;8.352;2023-04-04T13:50:31;13.30;1.00
10536;DHT22;5316;49.538;8.352;2023-04-04T13:53:00;13.50;1.00
10536;DHT22;5316;49.538;8.352;2023-04-04T13:55:26;13.70;1.00
10536;DHT22;5316;49.538;8.352;2023-04-04T13:57:53;13.80;1.00
10536;DHT22;5316;49.538;8.352;2023-04-04T14:00:21;13.90;1.00
10536;DHT22;5316;49.538;8.352;2023-04-04T14:02:49;13.90;1.00
10536;DHT22;5316;49.538;8.352;2023-04-04T14:05:17;13.70;1.00
10536;DHT22;5316;49.538;8.352;2023-04-04T14:07:44;13.80;1.00
10536;DHT22;5316;49.538;8.352;2023-04-04T14:10:12;14.10;1.00
10536;DHT22;5316;49.538;8.352;2023-04-04T14:12:39;14.30;1.00
10536;DHT22;5316;49.538;8.352;2023-04-04T14:15:07;14.40;1.00
10536;DHT22;5316;49.538;8.352;2023-04-04T14:17:34;14.50;1.00
10536;DHT22;5316;49.538;8.352;2023-04-04T14:20:01;14.70;1.00
10536;DHT22;5316;49.538;8.352;2023-04-04T14:22:28;14.90;1.00
10536;DHT22;5316;49.538;8.352;2023-04-04T14:24:55;15.00;1.00
10536;DHT22;5316;49.538;8.352;2023-04-04T14:27:23;15.30;1.00
10536;DHT22;5316;49.538;8.352;2023-04-04T14:29:50;15.60;1.00
10536;DHT22;5316;49.538;8.352;2023-04-04T14:32:17;15.90;1.00
10536;DHT22;5316;49.538;8.352;2023-04-04T14:34:44;15.80;1.00
10536;DHT22;5316;49.538;8.352;2023-04-04T14:37:11;15.90;1.00
10536;DHT22;5316;49.538;8.352;2023-04-04T14:39:38;15.70;1.00
10536;DHT22;5316;49.538;8.352;2023-04-04T14:42:04;15.90;1.00
10536;DHT22;5316;49.538;8.352;2023-04-04T14:44:33;16.20;1.00
10536;DHT22;5316;49.538;8.352;2023-04-04T14:46:59;16.60;1.00
10536;DHT22;5316;49.538;8.352;2023-04-04T14:49:26;17.00;1.00
10536;DHT22;5316;49.538;8.352;2023-04-04T14:51:53;17.20;1.00
10536;DHT22;5316;49.538;8.352;2023-04-04T14:54:20;17.50;1.00
10536;DHT22;5316;49.538;8.352;2023-04-04T14:56:47;17.50;1.00
10536;DHT22;5316;49.538;8.352;2023-04-04T14:59:14;17.30;1.00
10536;DHT22;5316;49.538;8.352;2023-04-04T15:01:42;17.60;1.00
10536;DHT22;5316;49.538;8.352;2023-04-04T15:04:09;17.50;1.00
10536;DHT22;5316;49.538;8.352;2023-04-04T15:06:36;17.80;1.00
10536;DHT22;5316;49.538;8.352;2023-04-04T15:09:04;17.70;1.00
10536;DHT22;5316;49.538;8.352;2023-04-04T15:11:32;17.90;1.00
10536;DHT22;5316;49.538;8.352;2023-04-04T15:14:00;17.60;1.00
10536;DHT22;5316;49.538;8.352;2023-04-04T15:16:27;17.60;1.00
10536;DHT22;5316;49.538;8.352;2023-04-04T15:18:59;17.80;1.00
10536;DHT22;5316;49.538;8.352;2023-04-04T15:21:26;17.70;1.00
10536;DHT22;5316;49.538;8.352;2023-04-04T15:23:53;18.30;1.00
10536;DHT22;5316;49.538;8.352;2023-04-04T15:26:20;18.70;1.00
10536;DHT22;5316;49.538;8.352;2023-04-04T15:28:47;18.60;1.00
10536;DHT22;5316;49.538;8.352;2023-04-04T15:31:14;18.70;1.00
10536;DHT22;5316;49.538;8.352;2023-04-04T15:33:41;18.80;1.00
10536;DHT22;5316;49.538;8.352;2023-04-04T15:36:09;18.80;1.00
10536;DHT22;5316;49.538;8.352;2023-04-04T15:38:36;18.50;1.00
10536;DHT22;5316;49.538;8.352;2023-04-04T15:41:05;18.20;1.00
10536;DHT22;5316;49.538;8.352;2023-04-04T15:43:34;18.10;1.00
10536;DHT22;5316;49.538;8.352;2023-04-04T15:46:01;18.00;1.00
10536;DHT22;5316;49.538;8.352;2023-04-04T15:48:28;18.10;1.00
10536;DHT22;5316;49.538;8.352;2023-04-04T15:50:58;18.40;1.00
10536;DHT22;5316;49.538;8.352;2023-04-04T15:53:28;18.70;1.00
10536;DHT22;5316;49.538;8.352;2023-04-04T15:55:55;18.90;1.00
10536;DHT22;5316;49.538;8.352;2023-04-04T15:58:22;19.20;1.00
10536;DHT22;5316;49.538;8.352;2023-04-04T16:00:49;19.40;1.00
10536;DHT22;5316;49.538;8.352;2023-04-04T16:03:16;19.50;1.00
10536;DHT22;5316;49.538;8.352;2023-04-04T16:05:43;19.50;1.00
10536;DHT22;5316;49.538;8.352;2023-04-04T16:08:12;19.20;1.00
10536;DHT22;5316;49.538;8.352;2023-04-04T16:10:40;19.20;1.00
10536;DHT22;5316;49.538;8.352;2023-04-04T16:13:08;19.40;1.00
10536;DHT22;5316;49.538;8.352;2023-04-04T16:15:35;19.50;1.00
10536;DHT22;5316;49.538;8.352;2023-04-04T16:18:02;19.70;1.00
10536;DHT22;5316;49.538;8.352;2023-04-04T16:20:29;19.70;1.00
10536;DHT22;5316;49.538;8.352;2023-04-04T16:22:56;19.20;1.00
10536;DHT22;5316;49.538;8.352;2023-04-04T16:25:23;18.60;1.00
10536;DHT22;5316;49.538;8.352;2023-04-04T16:27:51;18.40;1.00
10536;DHT22;5316;49.538;8.352;2023-04-04T16:30:18;18.50;1.00
10536;DHT22;5316;49.538;8.352;2023-04-04T16:32:45;18.70;1.00
10536;DHT22;5316;49.538;8.352;2023-04-04T16:35:12;19.00;1.00
10536;DHT22;5316;49.538;8.352;2023-04-04T16:37:39;19.20;1.00
10536;DHT22;5316;49.538;8.352;2023-04-04T16:40:07;19.10;1.00
10536;DHT22;5316;49.538;8.352;2023-04-04T16:42:34;18.60;1.00
10536;DHT22;5316;49.538;8.352;2023-04-04T16:45:03;18.50;1.00
10536;DHT22;5316;49.538;8.352;2023-04-04T16:47:32;18.50;1.00
10536;DHT22;5316;49.538;8.352;2023-04-04T16:49:59;18.20;1.00
10536;DHT22;5316;49.538;8.352;2023-04-04T16:52:26;18.00;1.00
10536;DHT22;5316;49.538;8.352;2023-04-04T16:54:53;17.80;1.00
10536;DHT22;5316;49.538;8.352;2023-04-04T16:57:20;17.70;1.00
10536;DHT22;5316;49.538;8.352;2023-04-04T16:59:46;17.70;1.00
10536;DHT22;5316;49.538;8.352;2023-04-04T17:02:14;17.50;1.00
10536;DHT22;5316;49.538;8.352;2023-04-04T17:04:41;17.50;1.00
10536;DHT22;5316;49.538;8.352;2023-04-04T17:07:08;17.30;1.00
10536;DHT22;5316;49.538;8.352;2023-04-04T17:09:35;16.90;1.00
10536;DHT22;5316;49.538;8.352;2023-04-04T17:12:02;16.70;1.00
10536;DHT22;5316;49.538;8.352;2023-04-04T17:14:30;16.40;1.00
10536;DHT22;5316;49.538;8.352;2023-04-04T17:16:56;16.00;1.00
10536;DHT22;5316;49.538;8.352;2023-04-04T17:19:26;15.60;1.00
10536;DHT22;5316;49.538;8.352;2023-04-04T17:21:54;15.10;1.00
10536;DHT22;5316;49.538;8.352;2023-04-04T17:24:21;14.70;1.00
10536;DHT22;5316;49.538;8.352;2023-04-04T17:26:50;14.20;1.00
10536;DHT22;5316;49.538;8.352;2023-04-04T17:29:16;14.00;1.00
10536;DHT22;5316;49.538;8.352;2023-04-04T17:31:45;13.60;1.00
10536;DHT22;5316;49.538;8.352;2023-04-04T17:34:13;13.20;1.00
10536;DHT22;5316;49.538;8.352;2023-04-04T17:36:41;13.00;1.00
10536;DHT22;5316;49.538;8.352;2023-04-04T17:39:08;12.80;1.00
10536;DHT22;5316;49.538;8.352;2023-04-04T17:41:35;12.50;1.00
10536;DHT22;5316;49.538;8.352;2023-04-04T17:44:02;12.40;1.00
10536;DHT22;5316;49.538;8.352;2023-04-04T17:46:29;12.20;1.00
10536;DHT22;5316;49.538;8.352;2023-04-04T17:48:56;12.00;1.00
10536;DHT22;5316;49.538;8.352;2023-04-04T17:51:23;11.90;1.00
10536;DHT22;5316;49.538;8.352;2023-04-04T17:53:51;11.70;1.00
10536;DHT22;5316;49.538;8.352;2023-04-04T17:56:18;11.50;1.00
10536;DHT22;5316;49.538;8.352;2023-04-04T17:58:44;11.40;1.00
10536;DHT22;5316;49.538;8.352;2023-04-04T18:01:11;11.30;1.00
10536;DHT22;5316;49.538;8.352;2023-04-04T18:03:38;11.00;1.00
10536;DHT22;5316;49.538;8.352;2023-04-04T18:06:05;11.00;1.00
10536;DHT22;5316;49.538;8.352;2023-04-04T18:08:33;10.80;1.00
10536;DHT22;5316;49.538;8.352;2023-04-04T18:11:01;10.70;1.00
10536;DHT22;5316;49.538;8.352;2023-04-04T18:13:29;10.60;1.00
10536;DHT22;5316;49.538;8.352;2023-04-04T18:15:56;10.40;1.00
10536;DHT22;5316;49.538;8.352;2023-04-04T18:18:23;10.30;1.00
10536;DHT22;5316;49.538;8.352;2023-04-04T18:20:51;10.10;1.00
10536;DHT22;5316;49.538;8.352;2023-04-04T18:23:19;10.00;1.00
10536;DHT22;5316;49.538;8.352;2023-04-04T18:25:47;9.90;1.00
10536;DHT22;5316;49.538;8.352;2023-04-04T18:28:15;9.80;1.00
10536;DHT22;5316;49.538;8.352;2023-04-04T18:30:42;9.70;1.00
10536;DHT22;5316;49.538;8.352;2023-04-04T18:33:15;9.60;1.00
10536;DHT22;5316;49.538;8.352;2023-04-04T18:35:42;9.50;1.00
10536;DHT22;5316;49.538;8.352;2023-04-04T18:38:09;9.40;1.00
10536;DHT22;5316;49.538;8.352;2023-04-04T18:40:36;9.30;1.00
10536;DHT22;5316;49.538;8.352;2023-04-04T18:43:02;9.20;1.00
10536;DHT22;5316;49.538;8.352;2023-04-04T18:45:31;9.10;1.00
10536;DHT22;5316;49.538;8.352;2023-04-04T18:47:58;9.10;1.00
10536;DHT22;5316;49.538;8.352;2023-04-04T18:50:25;9.00;1.00
10536;DHT22;5316;49.538;8.352;2023-04-04T18:52:53;9.00;1.00
10536;DHT22;5316;49.538;8.352;2023-04-04T18:55:21;9.00;1.00
10536;DHT22;5316;49.538;8.352;2023-04-04T18:57:48;8.80;1.00
10536;DHT22;5316;49.538;8.352;2023-04-04T19:00:15;8.70;1.00
10536;DHT22;5316;49.538;8.352;2023-04-04T19:02:43;8.60;1.00
10536;DHT22;5316;49.538;8.352;2023-04-04T19:05:11;8.50;1.00
10536;DHT22;5316;49.538;8.352;2023-04-04T19:07:57;8.50;1.00
10536;DHT22;5316;49.538;8.352;2023-04-04T19:10:33;8.40;1.00
10536;DHT22;5316;49.538;8.352;2023-04-04T19:13:07;8.30;1.00
10536;DHT22;5316;49.538;8.352;2023-04-04T19:15:34;8.20;1.00
10536;DHT22;5316;49.538;8.352;2023-04-04T19:18:24;8.10;1.00
10536;DHT22;5316;49.538;8.352;2023-04-04T19:20:54;8.20;1.00
10536;DHT22;5316;49.538;8.352;2023-04-04T19:23:23;8.10;1.00
10536;DHT22;5316;49.538;8.352;2023-04-04T19:25:52;8.10;1.00
10536;DHT22;5316;49.538;8.352;2023-04-04T19:28:22;8.00;1.00
10536;DHT22;5316;49.538;8.352;2023-04-04T19:31:08;8.00;1.00
10536;DHT22;5316;49.538;8.352;2023-04-04T19:33:44;8.00;1.00
10536;DHT22;5316;49.538;8.352;2023-04-04T19:36:11;7.90;1.00
10536;DHT22;5316;49.538;8.352;2023-04-04T19:38:52;7.80;1.00
10536;DHT22;5316;49.538;8.352;2023-04-04T19:41:32;7.80;1.00
10536;DHT22;5316;49.538;8.352;2023-04-04T19:44:05;7.70;1.00
10536;DHT22;5316;49.538;8.352;2023-04-04T19:48:54;7.70;1.00
10536;DHT22;5316;49.538;8.352;2023-04-04T19:50:31;7.70;1.00
10536;DHT22;5316;49.538;8.352;2023-04-04T21:06:14;6.70;1.00
10536;DHT22;5316;49.538;8.352;2023-04-04T21:08:47;6.70;1.00
10536;DHT22;5316;49.538;8.352;2023-04-04T21:11:22;6.70;1.00
10536;DHT22;5316;49.538;8.352;2023-04-04T21:13:49;6.60;1.00
10536;DHT22;5316;49.538;8.352;2023-04-04T21:16:18;6.60;1.00